Langford Airport


Codes: FVLA/
Name: Langford Airport
City: Langford
Country: Zimbabwe
Elevation: 4600 ft.

Photos at Langford Airport


   Photos courtesy of SpottingLog. You can add your own sightings and photos by signing up for a free trial today.



No photos found.

Weather at Langford Airport


Time (UTC)DescriptionTempratureWindCloud coverageVisibilityPressureHumidity
25-Jun-2024 12:00Clear Sky20°C9 mph, SE0%10000m1020hPa41%
25-Jun-2024 15:00Clear Sky20°C9 mph, SE0%10000m1020hPa36%
25-Jun-2024 18:00Clear Sky15°C9 mph, SE0%10000m1023hPa49%
25-Jun-2024 21:00Scattered Clouds11°C7 mph, SE35%10000m1026hPa70%
26-Jun-2024 00:00Scattered Clouds9°C7 mph, SE40%10000m1025hPa90%
26-Jun-2024 03:00Clear Sky8°C7 mph, SE4%10000m1025hPa93%
26-Jun-2024 06:00Clear Sky13°C11 mph, SE6%10000m1025hPa75%
26-Jun-2024 09:00Few Clouds19°C11 mph, SE14%10000m1024hPa47%
26-Jun-2024 12:00Broken Clouds17°C9 mph, SE56%10000m1022hPa51%
26-Jun-2024 15:00Overcast Clouds15°C9 mph, SE100%10000m1023hPa56%
26-Jun-2024 18:00Overcast Clouds15°C9 mph, SE100%10000m1025hPa49%
26-Jun-2024 21:00Overcast Clouds14°C11 mph, SE97%10000m1025hPa52%
27-Jun-2024 00:00Overcast Clouds12°C9 mph, SE97%10000m1025hPa61%
27-Jun-2024 03:00Overcast Clouds11°C9 mph, SE89%10000m1025hPa71%
27-Jun-2024 06:00Overcast Clouds12°C11 mph, SE89%10000m1027hPa71%
27-Jun-2024 09:00Broken Clouds19°C9 mph, SE65%10000m1025hPa39%
27-Jun-2024 12:00Scattered Clouds22°C11 mph, SE38%10000m1020hPa28%
27-Jun-2024 15:00Broken Clouds16°C13 mph, SE64%10000m1022hPa59%
27-Jun-2024 18:00Broken Clouds13°C9 mph, SE74%10000m1026hPa79%
27-Jun-2024 21:00Scattered Clouds10°C7 mph, SE39%10000m1026hPa91%
28-Jun-2024 00:00Scattered Clouds11°C9 mph, SE44%10000m1025hPa90%
28-Jun-2024 03:00Broken Clouds12°C9 mph, SE84%10000m1025hPa82%
28-Jun-2024 06:00Broken Clouds13°C11 mph, SE75%10000m1026hPa75%
28-Jun-2024 09:00Broken Clouds14°C9 mph, SE71%10000m1026hPa67%
28-Jun-2024 12:00Light Rain18°C9 mph, SE78%10000m1021hPa50%
28-Jun-2024 15:00Light Rain16°C4 mph, SE76%10000m1022hPa53%
28-Jun-2024 18:00Overcast Clouds14°C7 mph, E86%10000m1024hPa65%
28-Jun-2024 21:00Overcast Clouds12°C7 mph, E91%10000m1024hPa78%
29-Jun-2024 00:00Scattered Clouds8°C4 mph, E47%10000m1024hPa90%
29-Jun-2024 03:00Clear Sky7°C4 mph, SE2%10000m1025hPa89%
29-Jun-2024 06:00Clear Sky11°C4 mph, SE3%10000m1025hPa67%
29-Jun-2024 09:00Clear Sky20°C2 mph, S2%10000m1022hPa36%
29-Jun-2024 12:00Clear Sky21°C4 mph, SW3%10000m1018hPa27%
29-Jun-2024 15:00Few Clouds19°C4 mph, S16%10000m1018hPa30%
29-Jun-2024 18:00Few Clouds13°C4 mph, SE23%10000m1021hPa44%
29-Jun-2024 21:00Scattered Clouds10°C7 mph, SE38%10000m1023hPa57%
30-Jun-2024 00:00Scattered Clouds9°C7 mph, E29%10000m1022hPa60%
30-Jun-2024 03:00Clear Sky9°C4 mph, NE3%10000m1022hPa65%
30-Jun-2024 06:00Clear Sky13°C4 mph, NE3%10000m1022hPa51%
30-Jun-2024 09:00Clear Sky21°C2 mph, S2%10000m1020hPa28%